sensor_id;sensor_type;location;lat;lon;timestamp;P1;durP1;ratioP1;P2;durP2;ratioP2
71148;SDS011;59072;42.144;25.200;2023-04-01T00:00:28;7.03;;;4.38;;
71148;SDS011;59072;42.144;25.200;2023-04-01T00:02:55;11.15;;;5.18;;
71148;SDS011;59072;42.144;25.200;2023-04-01T00:05:21;7.60;;;4.55;;
71148;SDS011;59072;42.144;25.200;2023-04-01T00:07:46;10.23;;;5.13;;
71148;SDS011;59072;42.144;25.200;2023-04-01T00:10:12;10.65;;;5.25;;
71148;SDS011;59072;42.144;25.200;2023-04-01T00:12:40;10.98;;;4.80;;
71148;SDS011;59072;42.144;25.200;2023-04-01T00:15:06;9.10;;;4.30;;
71148;SDS011;59072;42.144;25.200;2023-04-01T00:17:33;7.15;;;4.35;;
71148;SDS011;59072;42.144;25.200;2023-04-01T00:19:59;7.07;;;4.20;;
71148;SDS011;59072;42.144;25.200;2023-04-01T00:22:25;9.27;;;4.40;;
71148;SDS011;59072;42.144;25.200;2023-04-01T00:24:51;11.13;;;4.57;;
71148;SDS011;59072;42.144;25.200;2023-04-01T00:27:17;6.63;;;4.15;;
71148;SDS011;59072;42.144;25.200;2023-04-01T00:29:43;7.30;;;4.15;;
71148;SDS011;59072;42.144;25.200;2023-04-01T00:32:09;10.27;;;5.22;;
71148;SDS011;59072;42.144;25.200;2023-04-01T00:34:35;11.18;;;4.28;;
71148;SDS011;59072;42.144;25.200;2023-04-01T00:37:00;7.22;;;3.88;;
71148;SDS011;59072;42.144;25.200;2023-04-01T00:39:28;8.32;;;3.78;;
71148;SDS011;59072;42.144;25.200;2023-04-01T00:41:54;8.80;;;4.03;;
71148;SDS011;59072;42.144;25.200;2023-04-01T00:44:23;8.00;;;4.03;;
71148;SDS011;59072;42.144;25.200;2023-04-01T00:46:50;8.27;;;4.57;;
71148;SDS011;59072;42.144;25.200;2023-04-01T00:49:17;10.10;;;4.18;;
71148;SDS011;59072;42.144;25.200;2023-04-01T00:51:45;11.95;;;4.00;;
71148;SDS011;59072;42.144;25.200;2023-04-01T00:54:15;11.90;;;5.38;;
71148;SDS011;59072;42.144;25.200;2023-04-01T00:56:45;14.07;;;6.57;;
71148;SDS011;59072;42.144;25.200;2023-04-01T00:59:17;11.68;;;6.22;;
71148;SDS011;59072;42.144;25.200;2023-04-01T01:01:47;10.95;;;4.82;;
71148;SDS011;59072;42.144;25.200;2023-04-01T01:04:26;9.23;;;4.20;;
71148;SDS011;59072;42.144;25.200;2023-04-01T01:14:34;8.45;;;4.00;;
71148;SDS011;59072;42.144;25.200;2023-04-01T01:17:05;8.65;;;3.63;;
71148;SDS011;59072;42.144;25.200;2023-04-01T01:25:45;9.65;;;4.68;;
71148;SDS011;59072;42.144;25.200;2023-04-01T01:36:28;8.48;;;5.00;;
71148;SDS011;59072;42.144;25.200;2023-04-01T01:39:00;11.25;;;6.07;;
71148;SDS011;59072;42.144;25.200;2023-04-01T01:41:28;8.88;;;4.75;;
71148;SDS011;59072;42.144;25.200;2023-04-01T01:43:56;8.98;;;4.63;;
71148;SDS011;59072;42.144;25.200;2023-04-01T01:46:22;9.93;;;4.80;;
71148;SDS011;59072;42.144;25.200;2023-04-01T01:48:51;9.50;;;5.03;;
71148;SDS011;59072;42.144;25.200;2023-04-01T01:51:18;8.57;;;5.20;;
71148;SDS011;59072;42.144;25.200;2023-04-01T01:53:45;8.43;;;5.40;;
71148;SDS011;59072;42.144;25.200;2023-04-01T01:56:11;9.23;;;5.03;;
71148;SDS011;59072;42.144;25.200;2023-04-01T01:58:51;9.40;;;5.25;;
71148;SDS011;59072;42.144;25.200;2023-04-01T02:01:21;8.20;;;5.45;;
71148;SDS011;59072;42.144;25.200;2023-04-01T02:03:50;8.00;;;4.80;;
71148;SDS011;59072;42.144;25.200;2023-04-01T02:06:20;8.50;;;5.33;;
71148;SDS011;59072;42.144;25.200;2023-04-01T02:08:51;15.55;;;5.30;;
71148;SDS011;59072;42.144;25.200;2023-04-01T02:11:23;7.40;;;4.88;;
71148;SDS011;59072;42.144;25.200;2023-04-01T02:14:13;9.20;;;4.88;;
71148;SDS011;59072;42.144;25.200;2023-04-01T02:22:41;9.18;;;4.57;;
71148;SDS011;59072;42.144;25.200;2023-04-01T02:25:16;9.45;;;5.00;;
71148;SDS011;59072;42.144;25.200;2023-04-01T02:27:45;10.00;;;5.40;;
71148;SDS011;59072;42.144;25.200;2023-04-01T02:30:12;9.63;;;5.10;;
71148;SDS011;59072;42.144;25.200;2023-04-01T02:32:39;11.88;;;5.38;;
71148;SDS011;59072;42.144;25.200;2023-04-01T02:35:09;11.20;;;5.75;;
71148;SDS011;59072;42.144;25.200;2023-04-01T02:37:36;10.30;;;5.55;;
71148;SDS011;59072;42.144;25.200;2023-04-01T02:40:03;11.23;;;5.53;;
71148;SDS011;59072;42.144;25.200;2023-04-01T02:42:32;10.13;;;6.07;;
71148;SDS011;59072;42.144;25.200;2023-04-01T02:44:58;10.07;;;6.85;;
71148;SDS011;59072;42.144;25.200;2023-04-01T02:47:24;8.35;;;5.30;;
71148;SDS011;59072;42.144;25.200;2023-04-01T02:49:49;10.02;;;6.38;;
71148;SDS011;59072;42.144;25.200;2023-04-01T02:52:15;12.32;;;6.13;;
71148;SDS011;59072;42.144;25.200;2023-04-01T02:54:40;10.95;;;6.13;;
71148;SDS011;59072;42.144;25.200;2023-04-01T02:57:05;11.73;;;6.55;;
71148;SDS011;59072;42.144;25.200;2023-04-01T02:59:31;12.68;;;6.53;;
71148;SDS011;59072;42.144;25.200;2023-04-01T03:01:57;11.68;;;6.60;;
71148;SDS011;59072;42.144;25.200;2023-04-01T03:04:23;10.40;;;6.55;;
71148;SDS011;59072;42.144;25.200;2023-04-01T03:06:48;10.80;;;5.90;;
71148;SDS011;59072;42.144;25.200;2023-04-01T03:09:14;10.38;;;7.25;;
71148;SDS011;59072;42.144;25.200;2023-04-01T03:11:41;10.88;;;7.18;;
71148;SDS011;59072;42.144;25.200;2023-04-01T03:14:06;13.35;;;7.00;;
71148;SDS011;59072;42.144;25.200;2023-04-01T03:16:32;10.40;;;6.53;;
71148;SDS011;59072;42.144;25.200;2023-04-01T03:18:57;10.60;;;7.13;;
71148;SDS011;59072;42.144;25.200;2023-04-01T03:21:25;11.82;;;6.43;;
71148;SDS011;59072;42.144;25.200;2023-04-01T03:23:51;15.43;;;7.80;;
71148;SDS011;59072;42.144;25.200;2023-04-01T03:26:16;14.50;;;7.65;;
71148;SDS011;59072;42.144;25.200;2023-04-01T03:28:43;12.80;;;7.78;;
71148;SDS011;59072;42.144;25.200;2023-04-01T03:31:09;11.68;;;7.55;;
71148;SDS011;59072;42.144;25.200;2023-04-01T03:33:35;13.05;;;7.82;;
71148;SDS011;59072;42.144;25.200;2023-04-01T03:36:01;13.45;;;8.27;;
71148;SDS011;59072;42.144;25.200;2023-04-01T03:38:28;15.75;;;8.82;;
71148;SDS011;59072;42.144;25.200;2023-04-01T03:40:53;13.75;;;9.50;;
71148;SDS011;59072;42.144;25.200;2023-04-01T03:43:19;12.38;;;8.43;;
71148;SDS011;59072;42.144;25.200;2023-04-01T03:45:49;16.27;;;8.52;;
71148;SDS011;59072;42.144;25.200;2023-04-01T03:48:16;19.42;;;8.38;;
71148;SDS011;59072;42.144;25.200;2023-04-01T03:50:42;20.08;;;9.63;;
71148;SDS011;59072;42.144;25.200;2023-04-01T03:53:08;17.58;;;8.60;;
71148;SDS011;59072;42.144;25.200;2023-04-01T03:55:35;13.55;;;8.40;;
71148;SDS011;59072;42.144;25.200;2023-04-01T03:58:02;15.13;;;8.63;;
71148;SDS011;59072;42.144;25.200;2023-04-01T04:00:28;16.80;;;10.13;;
71148;SDS011;59072;42.144;25.200;2023-04-01T04:02:55;24.83;;;13.88;;
71148;SDS011;59072;42.144;25.200;2023-04-01T04:05:22;31.73;;;19.88;;
71148;SDS011;59072;42.144;25.200;2023-04-01T04:07:48;22.73;;;13.23;;
71148;SDS011;59072;42.144;25.200;2023-04-01T04:10:13;23.80;;;14.05;;
71148;SDS011;59072;42.144;25.200;2023-04-01T04:12:39;24.98;;;16.83;;
71148;SDS011;59072;42.144;25.200;2023-04-01T04:15:05;28.85;;;17.42;;
71148;SDS011;59072;42.144;25.200;2023-04-01T04:17:31;24.63;;;17.55;;
71148;SDS011;59072;42.144;25.200;2023-04-01T04:19:57;43.60;;;25.77;;
71148;SDS011;59072;42.144;25.200;2023-04-01T04:22:22;31.52;;;18.08;;
71148;SDS011;59072;42.144;25.200;2023-04-01T04:24:47;24.08;;;14.95;;
71148;SDS011;59072;42.144;25.200;2023-04-01T04:27:13;78.30;;;42.75;;
71148;SDS011;59072;42.144;25.200;2023-04-01T04:29:38;48.97;;;27.90;;
71148;SDS011;59072;42.144;25.200;2023-04-01T04:32:04;27.58;;;14.10;;
71148;SDS011;59072;42.144;25.200;2023-04-01T04:34:30;297.13;;;114.97;;
71148;SDS011;59072;42.144;25.200;2023-04-01T04:36:55;404.15;;;166.02;;
71148;SDS011;59072;42.144;25.200;2023-04-01T04:39:21;161.45;;;68.28;;
71148;SDS011;59072;42.144;25.200;2023-04-01T04:41:46;182.90;;;76.85;;
71148;SDS011;59072;42.144;25.200;2023-04-01T04:44:11;188.13;;;72.18;;
71148;SDS011;59072;42.144;25.200;2023-04-01T04:46:37;137.32;;;53.90;;
71148;SDS011;59072;42.144;25.200;2023-04-01T04:49:04;40.60;;;19.10;;
71148;SDS011;59072;42.144;25.200;2023-04-01T04:51:30;18.02;;;12.27;;
71148;SDS011;59072;42.144;25.200;2023-04-01T04:56:24;23.17;;;12.73;;
71148;SDS011;59072;42.144;25.200;2023-04-01T04:58:51;18.55;;;11.32;;
71148;SDS011;59072;42.144;25.200;2023-04-01T05:01:17;19.48;;;12.23;;
71148;SDS011;59072;42.144;25.200;2023-04-01T05:03:43;21.40;;;12.90;;
71148;SDS011;59072;42.144;25.200;2023-04-01T05:06:10;22.42;;;13.07;;
71148;SDS011;59072;42.144;25.200;2023-04-01T05:08:38;25.15;;;13.15;;
71148;SDS011;59072;42.144;25.200;2023-04-01T05:11:06;20.67;;;12.40;;
71148;SDS011;59072;42.144;25.200;2023-04-01T05:13:35;22.30;;;12.60;;
71148;SDS011;59072;42.144;25.200;2023-04-01T05:16:00;25.50;;;15.43;;
71148;SDS011;59072;42.144;25.200;2023-04-01T05:18:26;21.77;;;13.25;;
71148;SDS011;59072;42.144;25.200;2023-04-01T05:20:52;22.83;;;12.20;;
71148;SDS011;59072;42.144;25.200;2023-04-01T05:23:20;23.33;;;13.60;;
71148;SDS011;59072;42.144;25.200;2023-04-01T05:25:50;22.13;;;13.30;;
71148;SDS011;59072;42.144;25.200;2023-04-01T05:28:17;19.10;;;12.98;;
71148;SDS011;59072;42.144;25.200;2023-04-01T05:30:43;20.40;;;11.52;;
71148;SDS011;59072;42.144;25.200;2023-04-01T05:33:09;26.73;;;15.52;;
71148;SDS011;59072;42.144;25.200;2023-04-01T05:35:36;31.45;;;18.08;;
71148;SDS011;59072;42.144;25.200;2023-04-01T05:38:02;20.20;;;13.98;;
71148;SDS011;59072;42.144;25.200;2023-04-01T05:40:28;19.95;;;11.82;;
71148;SDS011;59072;42.144;25.200;2023-04-01T05:42:54;16.77;;;10.80;;
71148;SDS011;59072;42.144;25.200;2023-04-01T05:45:20;13.05;;;8.45;;
71148;SDS011;59072;42.144;25.200;2023-04-01T05:47:45;15.57;;;9.43;;
71148;SDS011;59072;42.144;25.200;2023-04-01T05:50:11;14.45;;;8.75;;
71148;SDS011;59072;42.144;25.200;2023-04-01T05:52:37;17.85;;;8.82;;
71148;SDS011;59072;42.144;25.200;2023-04-01T05:55:03;12.90;;;8.07;;
71148;SDS011;59072;42.144;25.200;2023-04-01T05:57:29;16.30;;;8.95;;
71148;SDS011;59072;42.144;25.200;2023-04-01T05:59:55;18.02;;;11.75;;
71148;SDS011;59072;42.144;25.200;2023-04-01T06:02:20;18.17;;;8.40;;
71148;SDS011;59072;42.144;25.200;2023-04-01T06:04:46;12.13;;;7.90;;
71148;SDS011;59072;42.144;25.200;2023-04-01T06:07:12;13.10;;;7.85;;
71148;SDS011;59072;42.144;25.200;2023-04-01T06:09:39;12.52;;;7.90;;
71148;SDS011;59072;42.144;25.200;2023-04-01T06:30:42;12.32;;;7.45;;
71148;SDS011;59072;42.144;25.200;2023-04-01T06:47:27;16.08;;;10.07;;
71148;SDS011;59072;42.144;25.200;2023-04-01T06:52:29;16.05;;;8.43;;
71148;SDS011;59072;42.144;25.200;2023-04-01T06:55:23;15.10;;;7.82;;
71148;SDS011;59072;42.144;25.200;2023-04-01T06:57:55;14.10;;;7.20;;
71148;SDS011;59072;42.144;25.200;2023-04-01T07:00:29;12.70;;;7.22;;
71148;SDS011;59072;42.144;25.200;2023-04-01T07:05:41;12.75;;;6.82;;
71148;SDS011;59072;42.144;25.200;2023-04-01T07:08:11;18.67;;;12.43;;
71148;SDS011;59072;42.144;25.200;2023-04-01T07:13:17;16.60;;;12.00;;
71148;SDS011;59072;42.144;25.200;2023-04-01T07:18:46;15.20;;;7.20;;
71148;SDS011;59072;42.144;25.200;2023-04-01T07:21:32;13.90;;;9.32;;
71148;SDS011;59072;42.144;25.200;2023-04-01T07:24:04;16.38;;;10.18;;
71148;SDS011;59072;42.144;25.200;2023-04-01T07:26:35;14.98;;;7.13;;
71148;SDS011;59072;42.144;25.200;2023-04-01T07:29:01;14.30;;;8.38;;
71148;SDS011;59072;42.144;25.200;2023-04-01T07:34:22;15.80;;;6.97;;
71148;SDS011;59072;42.144;25.200;2023-04-01T07:47:45;17.80;;;8.90;;
71148;SDS011;59072;42.144;25.200;2023-04-01T07:53:20;11.70;;;5.82;;
71148;SDS011;59072;42.144;25.200;2023-04-01T07:56:10;10.18;;;5.78;;
71148;SDS011;59072;42.144;25.200;2023-04-01T08:07:15;9.27;;;4.18;;
71148;SDS011;59072;42.144;25.200;2023-04-01T08:12:36;9.45;;;5.53;;
71148;SDS011;59072;42.144;25.200;2023-04-01T08:21:01;9.88;;;4.10;;
71148;SDS011;59072;42.144;25.200;2023-04-01T08:23:42;7.47;;;3.53;;
71148;SDS011;59072;42.144;25.200;2023-04-01T08:26:13;8.15;;;3.67;;
71148;SDS011;59072;42.144;25.200;2023-04-01T08:29:15;6.90;;;3.67;;
71148;SDS011;59072;42.144;25.200;2023-04-01T08:32:03;8.70;;;3.65;;
71148;SDS011;59072;42.144;25.200;2023-04-01T08:34:32;12.38;;;5.13;;
71148;SDS011;59072;42.144;25.200;2023-04-01T08:37:11;11.43;;;3.78;;
71148;SDS011;59072;42.144;25.200;2023-04-01T08:39:39;7.18;;;3.38;;
71148;SDS011;59072;42.144;25.200;2023-04-01T08:48:20;9.48;;;5.05;;
71148;SDS011;59072;42.144;25.200;2023-04-01T08:50:51;10.52;;;4.95;;
71148;SDS011;59072;42.144;25.200;2023-04-01T08:56:26;10.32;;;5.47;;
71148;SDS011;59072;42.144;25.200;2023-04-01T09:01:57;12.38;;;6.93;;
71148;SDS011;59072;42.144;25.200;2023-04-01T09:07:02;14.02;;;7.18;;
71148;SDS011;59072;42.144;25.200;2023-04-01T09:20:30;11.52;;;4.78;;
71148;SDS011;59072;42.144;25.200;2023-04-01T09:28:42;12.98;;;4.35;;
71148;SDS011;59072;42.144;25.200;2023-04-01T09:31:25;7.82;;;4.05;;
71148;SDS011;59072;42.144;25.200;2023-04-01T09:39:44;10.05;;;4.10;;
71148;SDS011;59072;42.144;25.200;2023-04-01T09:42:41;10.48;;;4.30;;
71148;SDS011;59072;42.144;25.200;2023-04-01T09:48:14;15.73;;;4.73;;
71148;SDS011;59072;42.144;25.200;2023-04-01T10:21:29;14.02;;;4.57;;
71148;SDS011;59072;42.144;25.200;2023-04-01T11:07:05;9.65;;;3.15;;
71148;SDS011;59072;42.144;25.200;2023-04-01T11:10:15;15.05;;;5.90;;
71148;SDS011;59072;42.144;25.200;2023-04-01T11:29:40;12.57;;;2.60;;
71148;SDS011;59072;42.144;25.200;2023-04-01T11:37:58;8.00;;;2.60;;
71148;SDS011;59072;42.144;25.200;2023-04-01T11:40:48;10.77;;;4.18;;
71148;SDS011;59072;42.144;25.200;2023-04-01T11:46:02;9.38;;;3.05;;
71148;SDS011;59072;42.144;25.200;2023-04-01T11:54:14;15.95;;;4.88;;
71148;SDS011;59072;42.144;25.200;2023-04-01T12:02:43;10.00;;;3.20;;
71148;SDS011;59072;42.144;25.200;2023-04-01T12:05:15;8.20;;;3.72;;
71148;SDS011;59072;42.144;25.200;2023-04-01T12:07:49;8.55;;;3.10;;
71148;SDS011;59072;42.144;25.200;2023-04-01T12:10:40;7.68;;;2.83;;
71148;SDS011;59072;42.144;25.200;2023-04-01T12:13:28;12.20;;;3.28;;
71148;SDS011;59072;42.144;25.200;2023-04-01T12:19:04;8.57;;;3.30;;
71148;SDS011;59072;42.144;25.200;2023-04-01T12:31:00;13.32;;;4.20;;
71148;SDS011;59072;42.144;25.200;2023-04-01T12:41:53;10.63;;;4.97;;
71148;SDS011;59072;42.144;25.200;2023-04-01T13:00:56;13.77;;;5.75;;
71148;SDS011;59072;42.144;25.200;2023-04-01T13:17:31;9.98;;;4.75;;
71148;SDS011;59072;42.144;25.200;2023-04-01T13:28:21;12.50;;;5.72;;
71148;SDS011;59072;42.144;25.200;2023-04-01T13:39:19;13.25;;;5.68;;
71148;SDS011;59072;42.144;25.200;2023-04-01T13:42:13;12.00;;;5.63;;
71148;SDS011;59072;42.144;25.200;2023-04-01T13:44:42;11.20;;;5.53;;
71148;SDS011;59072;42.144;25.200;2023-04-01T13:56:33;12.02;;;5.43;;
71148;SDS011;59072;42.144;25.200;2023-04-01T13:58:49;10.45;;;5.45;;
71148;SDS011;59072;42.144;25.200;2023-04-01T14:01:39;13.05;;;5.18;;
71148;SDS011;59072;42.144;25.200;2023-04-01T14:49:01;5.90;;;2.95;;
71148;SDS011;59072;42.144;25.200;2023-04-01T14:54:00;5.50;;;3.03;;
71148;SDS011;59072;42.144;25.200;2023-04-01T14:56:51;11.63;;;3.42;;
71148;SDS011;59072;42.144;25.200;2023-04-01T14:59:30;7.72;;;3.60;;
71148;SDS011;59072;42.144;25.200;2023-04-01T15:34:27;4.90;;;1.80;;
71148;SDS011;59072;42.144;25.200;2023-04-01T15:37:50;4.10;;;2.15;;
71148;SDS011;59072;42.144;25.200;2023-04-01T15:53:54;3.67;;;1.80;;
71148;SDS011;59072;42.144;25.200;2023-04-01T15:56:36;3.90;;;1.98;;
71148;SDS011;59072;42.144;25.200;2023-04-01T16:10:13;3.47;;;2.42;;
71148;SDS011;59072;42.144;25.200;2023-04-01T16:12:53;8.45;;;5.00;;
71148;SDS011;59072;42.144;25.200;2023-04-01T16:15:25;5.70;;;2.90;;
71148;SDS011;59072;42.144;25.200;2023-04-01T16:20:41;5.68;;;3.33;;
71148;SDS011;59072;42.144;25.200;2023-04-01T16:26:07;7.70;;;3.42;;
71148;SDS011;59072;42.144;25.200;2023-04-01T16:28:55;7.75;;;4.65;;
71148;SDS011;59072;42.144;25.200;2023-04-01T16:34:30;7.72;;;4.40;;
71148;SDS011;59072;42.144;25.200;2023-04-01T16:37:15;7.18;;;3.85;;
71148;SDS011;59072;42.144;25.200;2023-04-01T16:42:53;18.83;;;8.45;;
71148;SDS011;59072;42.144;25.200;2023-04-01T16:45:34;17.52;;;8.63;;
71148;SDS011;59072;42.144;25.200;2023-04-01T16:51:15;12.23;;;5.75;;
71148;SDS011;59072;42.144;25.200;2023-04-01T16:56:24;19.67;;;8.68;;
71148;SDS011;59072;42.144;25.200;2023-04-01T17:01:43;11.57;;;5.75;;
71148;SDS011;59072;42.144;25.200;2023-04-01T17:07:15;12.85;;;5.70;;
71148;SDS011;59072;42.144;25.200;2023-04-01T17:18:36;13.52;;;6.28;;
71148;SDS011;59072;42.144;25.200;2023-04-01T17:21:25;7.32;;;3.35;;
71148;SDS011;59072;42.144;25.200;2023-04-01T17:24:24;16.48;;;8.05;;
71148;SDS011;59072;42.144;25.200;2023-04-01T17:29:33;6.72;;;3.50;;
71148;SDS011;59072;42.144;25.200;2023-04-01T17:32:40;15.45;;;7.25;;
71148;SDS011;59072;42.144;25.200;2023-04-01T17:35:19;17.77;;;6.95;;
71148;SDS011;59072;42.144;25.200;2023-04-01T17:38:02;12.55;;;5.75;;
71148;SDS011;59072;42.144;25.200;2023-04-01T17:45:54;10.90;;;5.57;;
71148;SDS011;59072;42.144;25.200;2023-04-01T18:02:11;9.88;;;5.55;;
71148;SDS011;59072;42.144;25.200;2023-04-01T18:24:27;6.75;;;3.63;;
71148;SDS011;59072;42.144;25.200;2023-04-01T18:27:12;5.53;;;3.17;;
71148;SDS011;59072;42.144;25.200;2023-04-01T18:29:50;7.47;;;3.10;;
71148;SDS011;59072;42.144;25.200;2023-04-01T18:32:34;9.50;;;3.38;;
71148;SDS011;59072;42.144;25.200;2023-04-01T18:40:36;3.63;;;1.95;;
71148;SDS011;59072;42.144;25.200;2023-04-01T18:45:59;3.10;;;1.38;;
71148;SDS011;59072;42.144;25.200;2023-04-01T18:51:16;3.10;;;1.30;;
71148;SDS011;59072;42.144;25.200;2023-04-01T18:53:47;1.97;;;1.30;;
71148;SDS011;59072;42.144;25.200;2023-04-01T18:56:24;1.98;;;0.95;;
71148;SDS011;59072;42.144;25.200;2023-04-01T19:18:35;1.90;;;1.10;;
71148;SDS011;59072;42.144;25.200;2023-04-01T19:21:16;1.60;;;0.98;;
71148;SDS011;59072;42.144;25.200;2023-04-01T19:31:38;2.75;;;1.10;;
71148;SDS011;59072;42.144;25.200;2023-04-01T19:34:18;2.47;;;1.20;;
71148;SDS011;59072;42.144;25.200;2023-04-01T19:39:32;3.20;;;1.50;;
71148;SDS011;59072;42.144;25.200;2023-04-01T19:56:29;3.58;;;1.52;;
71148;SDS011;59072;42.144;25.200;2023-04-01T20:04:26;2.75;;;1.98;;
71148;SDS011;59072;42.144;25.200;2023-04-01T20:12:54;2.80;;;1.60;;
71148;SDS011;59072;42.144;25.200;2023-04-01T20:15:39;2.50;;;1.45;;
71148;SDS011;59072;42.144;25.200;2023-04-01T20:20:58;2.53;;;1.65;;
71148;SDS011;59072;42.144;25.200;2023-04-01T20:23:39;2.90;;;1.80;;
71148;SDS011;59072;42.144;25.200;2023-04-01T20:26:12;3.08;;;1.48;;
71148;SDS011;59072;42.144;25.200;2023-04-01T20:28:43;4.10;;;2.40;;
71148;SDS011;59072;42.144;25.200;2023-04-01T20:33:51;4.03;;;2.47;;
71148;SDS011;59072;42.144;25.200;2023-04-01T20:36:38;3.95;;;2.20;;
71148;SDS011;59072;42.144;25.200;2023-04-01T20:58:50;2.88;;;1.98;;
71148;SDS011;59072;42.144;25.200;2023-04-01T21:01:51;3.65;;;2.40;;
71148;SDS011;59072;42.144;25.200;2023-04-01T21:24:28;4.72;;;2.70;;
71148;SDS011;59072;42.144;25.200;2023-04-01T21:33:07;2.60;;;2.30;;
71148;SDS011;59072;42.144;25.200;2023-04-01T21:35:53;3.63;;;2.55;;
71148;SDS011;59072;42.144;25.200;2023-04-01T22:00:36;4.13;;;3.50;;
71148;SDS011;59072;42.144;25.200;2023-04-01T22:12:28;3.45;;;2.40;;
71148;SDS011;59072;42.144;25.200;2023-04-01T22:14:55;4.30;;;2.70;;
71148;SDS011;59072;42.144;25.200;2023-04-01T22:23:26;3.08;;;2.47;;
71148;SDS011;59072;42.144;25.200;2023-04-01T22:31:17;4.65;;;3.53;;
71148;SDS011;59072;42.144;25.200;2023-04-01T22:33:52;3.45;;;2.22;;
71148;SDS011;59072;42.144;25.200;2023-04-01T22:39:40;3.75;;;2.30;;
71148;SDS011;59072;42.144;25.200;2023-04-01T22:42:25;3.65;;;2.30;;
71148;SDS011;59072;42.144;25.200;2023-04-01T22:48:00;3.35;;;2.58;;
71148;SDS011;59072;42.144;25.200;2023-04-01T22:55:52;3.78;;;2.33;;
71148;SDS011;59072;42.144;25.200;2023-04-01T22:58:30;3.85;;;2.33;;
71148;SDS011;59072;42.144;25.200;2023-04-01T23:01:18;3.67;;;2.65;;
71148;SDS011;59072;42.144;25.200;2023-04-01T23:03:49;3.20;;;2.38;;
71148;SDS011;59072;42.144;25.200;2023-04-01T23:06:18;3.67;;;2.40;;
71148;SDS011;59072;42.144;25.200;2023-04-01T23:11:17;3.28;;;2.17;;
71148;SDS011;59072;42.144;25.200;2023-04-01T23:13:49;3.47;;;2.28;;
71148;SDS011;59072;42.144;25.200;2023-04-01T23:16:37;3.85;;;2.30;;
71148;SDS011;59072;42.144;25.200;2023-04-01T23:29:25;3.83;;;2.50;;
71148;SDS011;59072;42.144;25.200;2023-04-01T23:32:05;5.53;;;2.65;;
71148;SDS011;59072;42.144;25.200;2023-04-01T23:34:38;4.43;;;2.65;;
71148;SDS011;59072;42.144;25.200;2023-04-01T23:37:05;3.28;;;2.22;;
71148;SDS011;59072;42.144;25.200;2023-04-01T23:39:41;3.83;;;2.25;;
71148;SDS011;59072;42.144;25.200;2023-04-01T23:42:17;4.88;;;2.55;;
71148;SDS011;59072;42.144;25.200;2023-04-01T23:45:05;6.38;;;3.38;;
71148;SDS011;59072;42.144;25.200;2023-04-01T23:47:39;5.97;;;3.22;;
71148;SDS011;59072;42.144;25.200;2023-04-01T23:52:43;5.25;;;3.60;;
71148;SDS011;59072;42.144;25.200;2023-04-01T23:57:39;6.38;;;4.30;;
